sensor_id;sensor_type;location;lat;lon;timestamp;pressure;altitude;pressure_sealevel;temperature;humidity
13033;BME280;6583;42.632;23.298;2022-11-13T00:02:04;93768.19;;;8.17;100.00
13033;BME280;6583;42.632;23.298;2022-11-13T00:04:31;93771.38;;;8.19;100.00
13033;BME280;6583;42.632;23.298;2022-11-13T00:06:58;93767.91;;;8.18;100.00
13033;BME280;6583;42.632;23.298;2022-11-13T00:09:25;93766.88;;;8.19;100.00
13033;BME280;6583;42.632;23.298;2022-11-13T00:11:51;93753.72;;;8.24;100.00
13033;BME280;6583;42.632;23.298;2022-11-13T00:14:18;93760.81;;;8.19;100.00
13033;BME280;6583;42.632;23.298;2022-11-13T00:16:45;93753.72;;;8.24;100.00
13033;BME280;6583;42.632;23.298;2022-11-13T00:19:13;93758.53;;;8.27;100.00
13033;BME280;6583;42.632;23.298;2022-11-13T00:21:40;93762.59;;;8.35;100.00
13033;BME280;6583;42.632;23.298;2022-11-13T00:24:07;93756.03;;;8.38;100.00
13033;BME280;6583;42.632;23.298;2022-11-13T00:26:34;93759.16;;;8.35;100.00
13033;BME280;6583;42.632;23.298;2022-11-13T00:29:01;93753.56;;;8.31;100.00
13033;BME280;6583;42.632;23.298;2022-11-13T00:31:28;93756.94;;;8.26;100.00
13033;BME280;6583;42.632;23.298;2022-11-13T00:33:56;93752.31;;;8.17;100.00
13033;BME280;6583;42.632;23.298;2022-11-13T00:36:26;93753.41;;;8.21;100.00
13033;BME280;6583;42.632;23.298;2022-11-13T00:38:55;93745.91;;;8.13;100.00
13033;BME280;6583;42.632;23.298;2022-11-13T00:41:22;93747.50;;;8.14;100.00
13033;BME280;6583;42.632;23.298;2022-11-13T00:43:49;93750.94;;;8.14;100.00
13033;BME280;6583;42.632;23.298;2022-11-13T00:46:16;93747.03;;;8.17;100.00
13033;BME280;6583;42.632;23.298;2022-11-13T00:48:44;93738.69;;;8.08;100.00
13033;BME280;6583;42.632;23.298;2022-11-13T00:51:10;93749.03;;;8.09;100.00
13033;BME280;6583;42.632;23.298;2022-11-13T00:53:39;93743.19;;;8.07;100.00
13033;BME280;6583;42.632;23.298;2022-11-13T00:56:06;93741.47;;;8.18;100.00
13033;BME280;6583;42.632;23.298;2022-11-13T00:58:32;93740.44;;;8.19;100.00
13033;BME280;6583;42.632;23.298;2022-11-13T01:01:03;93746.59;;;8.25;100.00
13033;BME280;6583;42.632;23.298;2022-11-13T01:03:31;93738.34;;;8.21;100.00
13033;BME280;6583;42.632;23.298;2022-11-13T01:05:58;93731.09;;;8.34;100.00
13033;BME280;6583;42.632;23.298;2022-11-13T01:08:25;93738.03;;;8.18;100.00
13033;BME280;6583;42.632;23.298;2022-11-13T01:10:53;93738.09;;;8.23;100.00
13033;BME280;6583;42.632;23.298;2022-11-13T01:13:20;93745.25;;;8.22;100.00
13033;BME280;6583;42.632;23.298;2022-11-13T01:15:46;93735.47;;;8.23;100.00
13033;BME280;6583;42.632;23.298;2022-11-13T01:18:13;93734.66;;;8.22;100.00
13033;BME280;6583;42.632;23.298;2022-11-13T01:20:40;93749.06;;;8.32;100.00
13033;BME280;6583;42.632;23.298;2022-11-13T01:23:07;93746.00;;;8.40;100.00
13033;BME280;6583;42.632;23.298;2022-11-13T01:25:34;93745.75;;;8.41;100.00
13033;BME280;6583;42.632;23.298;2022-11-13T01:28:03;93739.25;;;8.49;100.00
13033;BME280;6583;42.632;23.298;2022-11-13T01:30:30;93742.38;;;8.46;100.00
13033;BME280;6583;42.632;23.298;2022-11-13T01:32:57;93736.84;;;8.47;100.00
13033;BME280;6583;42.632;23.298;2022-11-13T01:35:23;93734.22;;;8.47;100.00
13033;BME280;6583;42.632;23.298;2022-11-13T01:37:50;93730.53;;;8.32;100.00
13033;BME280;6583;42.632;23.298;2022-11-13T01:40:17;93723.22;;;8.39;100.00
13033;BME280;6583;42.632;23.298;2022-11-13T01:42:44;93725.97;;;8.44;100.00
13033;BME280;6583;42.632;23.298;2022-11-13T01:46:00;93725.19;;;8.43;100.00
13033;BME280;6583;42.632;23.298;2022-11-13T01:48:33;93722.53;;;8.43;100.00
13033;BME280;6583;42.632;23.298;2022-11-13T01:51:02;93721.50;;;8.44;100.00
13033;BME280;6583;42.632;23.298;2022-11-13T01:53:31;93724.25;;;8.55;100.00
13033;BME280;6583;42.632;23.298;2022-11-13T01:55:58;93712.25;;;8.47;100.00
13033;BME280;6583;42.632;23.298;2022-11-13T01:58:25;93721.50;;;8.44;100.00
13033;BME280;6583;42.632;23.298;2022-11-13T02:00:51;93723.38;;;8.49;100.00
13033;BME280;6583;42.632;23.298;2022-11-13T02:03:19;93712.97;;;8.42;100.00
13033;BME280;6583;42.632;23.298;2022-11-13T02:05:46;93717.06;;;8.50;100.00
13033;BME280;6583;42.632;23.298;2022-11-13T02:08:13;93713.19;;;8.41;100.00
13033;BME280;6583;42.632;23.298;2022-11-13T02:10:40;93717.78;;;8.45;100.00
13033;BME280;6583;42.632;23.298;2022-11-13T02:13:07;93721.81;;;8.48;100.00
13033;BME280;6583;42.632;23.298;2022-11-13T02:15:34;93718.34;;;8.47;100.00
13033;BME280;6583;42.632;23.298;2022-11-13T02:18:01;93715.63;;;8.42;100.00
13033;BME280;6583;42.632;23.298;2022-11-13T02:20:36;93720.97;;;8.47;100.00
13033;BME280;6583;42.632;23.298;2022-11-13T02:23:11;93728.38;;;8.45;100.00
13033;BME280;6583;42.632;23.298;2022-11-13T02:25:43;93720.44;;;8.45;100.00
13033;BME280;6583;42.632;23.298;2022-11-13T02:28:10;93717.00;;;8.45;100.00
13033;BME280;6583;42.632;23.298;2022-11-13T02:30:37;93716.19;;;8.44;100.00
13033;BME280;6583;42.632;23.298;2022-11-13T02:33:20;93713.28;;;8.46;100.00
13033;BME280;6583;42.632;23.298;2022-11-13T02:35:47;93710.41;;;8.47;100.00
13033;BME280;6583;42.632;23.298;2022-11-13T02:38:14;93714.09;;;8.46;100.00
13033;BME280;6583;42.632;23.298;2022-11-13T02:40:42;93714.34;;;8.45;100.00
13033;BME280;6583;42.632;23.298;2022-11-13T02:43:09;93710.41;;;8.47;100.00
13033;BME280;6583;42.632;23.298;2022-11-13T02:45:36;93707.44;;;8.44;100.00
13033;BME280;6583;42.632;23.298;2022-11-13T02:48:04;93705.53;;;8.39;100.00
13033;BME280;6583;42.632;23.298;2022-11-13T02:50:31;93712.09;;;8.37;100.00
13033;BME280;6583;42.632;23.298;2022-11-13T02:52:58;93713.03;;;8.25;100.00
13033;BME280;6583;42.632;23.298;2022-11-13T02:55:25;93713.81;;;8.26;100.00
13033;BME280;6583;42.632;23.298;2022-11-13T02:57:53;93717.50;;;8.25;100.00
13033;BME280;6583;42.632;23.298;2022-11-13T03:00:20;93718.69;;;8.34;100.00
13033;BME280;6583;42.632;23.298;2022-11-13T03:02:47;93719.72;;;8.33;100.00
13033;BME280;6583;42.632;23.298;2022-11-13T03:05:14;93715.03;;;8.40;100.00
13033;BME280;6583;42.632;23.298;2022-11-13T03:07:41;93712.09;;;8.37;100.00
13033;BME280;6583;42.632;23.298;2022-11-13T03:10:09;93716.59;;;8.36;100.00
13033;BME280;6583;42.632;23.298;2022-11-13T03:12:36;93710.94;;;8.27;100.00
13033;BME280;6583;42.632;23.298;2022-11-13T03:15:05;93709.16;;;8.33;100.00
13033;BME280;6583;42.632;23.298;2022-11-13T03:17:33;93714.91;;;8.30;100.00
13033;BME280;6583;42.632;23.298;2022-11-13T03:20:00;93699.50;;;8.22;100.00
13033;BME280;6583;42.632;23.298;2022-11-13T03:22:29;93706.72;;;8.09;100.00
13033;BME280;6583;42.632;23.298;2022-11-13T03:24:56;93710.97;;;8.10;100.00
13033;BME280;6583;42.632;23.298;2022-11-13T03:27:23;93707.03;;;8.13;100.00
13033;BME280;6583;42.632;23.298;2022-11-13T03:29:49;93714.84;;;8.25;100.00
13033;BME280;6583;42.632;23.298;2022-11-13T03:32:17;93718.81;;;8.22;100.00
13033;BME280;6583;42.632;23.298;2022-11-13T03:34:44;93715.38;;;8.22;100.00
13033;BME280;6583;42.632;23.298;2022-11-13T03:37:11;93715.09;;;8.23;100.00
13033;BME280;6583;42.632;23.298;2022-11-13T03:39:38;93715.91;;;8.24;100.00
13033;BME280;6583;42.632;23.298;2022-11-13T03:42:05;93717.44;;;8.20;100.00
13033;BME280;6583;42.632;23.298;2022-11-13T03:44:31;93730.97;;;8.23;100.00
13033;BME280;6583;42.632;23.298;2022-11-13T03:46:58;93733.38;;;8.25;100.00
13033;BME280;6583;42.632;23.298;2022-11-13T03:49:26;93721.75;;;8.26;100.00
13033;BME280;6583;42.632;23.298;2022-11-13T03:51:53;93727.66;;;8.33;100.00
13033;BME280;6583;42.632;23.298;2022-11-13T03:54:20;93725.38;;;8.20;100.00
13033;BME280;6583;42.632;23.298;2022-11-13T03:56:47;93730.50;;;8.09;100.00
13033;BME280;6583;42.632;23.298;2022-11-13T03:59:13;93723.31;;;8.22;100.00
13033;BME280;6583;42.632;23.298;2022-11-13T04:01:40;93723.34;;;8.27;100.00
13033;BME280;6583;42.632;23.298;2022-11-13T04:04:07;93731.28;;;8.27;100.00
13033;BME280;6583;42.632;23.298;2022-11-13T04:06:35;93728.69;;;8.32;100.00
13033;BME280;6583;42.632;23.298;2022-11-13T04:09:02;93731.91;;;8.34;100.00
13033;BME280;6583;42.632;23.298;2022-11-13T04:11:29;93728.22;;;8.35;100.00
13033;BME280;6583;42.632;23.298;2022-11-13T04:13:56;93722.13;;;8.35;100.00
13033;BME280;6583;42.632;23.298;2022-11-13T04:16:22;93728.22;;;8.35;100.00
13033;BME280;6583;42.632;23.298;2022-11-13T04:18:49;93723.84;;;8.24;100.00
13033;BME280;6583;42.632;23.298;2022-11-13T04:21:16;93715.97;;;8.29;100.00
13033;BME280;6583;42.632;23.298;2022-11-13T04:23:44;93714.91;;;8.30;100.00
13033;BME280;6583;42.632;23.298;2022-11-13T04:26:11;93716.16;;;8.22;100.00
13033;BME280;6583;42.632;23.298;2022-11-13T04:28:38;93709.63;;;8.30;100.00
13033;BME280;6583;42.632;23.298;2022-11-13T04:31:05;93721.41;;;8.39;100.00
13033;BME280;6583;42.632;23.298;2022-11-13T04:33:31;93717.06;;;8.33;100.00
13033;BME280;6583;42.632;23.298;2022-11-13T04:35:58;93722.44;;;8.38;100.00
13033;BME280;6583;42.632;23.298;2022-11-13T04:38:25;93725.06;;;8.38;100.00
13033;BME280;6583;42.632;23.298;2022-11-13T04:40:53;93720.69;;;8.27;100.00
13033;BME280;6583;42.632;23.298;2022-11-13T04:43:40;93713.41;;;8.34;100.00
13033;BME280;6583;42.632;23.298;2022-11-13T04:46:06;93707.97;;;8.24;100.00
13033;BME280;6583;42.632;23.298;2022-11-13T04:48:33;93714.13;;;8.29;100.00
13033;BME280;6583;42.632;23.298;2022-11-13T04:50:59;93718.13;;;8.32;100.00
13033;BME280;6583;42.632;23.298;2022-11-13T04:53:26;93717.38;;;8.37;100.00
13033;BME280;6583;42.632;23.298;2022-11-13T04:55:54;93722.53;;;8.43;100.00
13033;BME280;6583;42.632;23.298;2022-11-13T04:58:21;93721.94;;;8.41;100.00
13033;BME280;6583;42.632;23.298;2022-11-13T05:00:47;93722.44;;;8.38;100.00
13033;BME280;6583;42.632;23.298;2022-11-13T05:03:14;93719.97;;;8.32;100.00
13033;BME280;6583;42.632;23.298;2022-11-13T05:05:41;93720.91;;;8.20;100.00
13033;BME280;6583;42.632;23.298;2022-11-13T05:08:07;93717.94;;;8.17;100.00
13033;BME280;6583;42.632;23.298;2022-11-13T05:10:34;93725.81;;;8.12;100.00
13033;BME280;6583;42.632;23.298;2022-11-13T05:13:02;93723.50;;;7.98;100.00
13033;BME280;6583;42.632;23.298;2022-11-13T05:15:29;93724.16;;;7.88;100.00
13033;BME280;6583;42.632;23.298;2022-11-13T05:17:56;93730.34;;;7.77;100.00
13033;BME280;6583;42.632;23.298;2022-11-13T05:20:22;93730.50;;;7.87;100.00
13033;BME280;6583;42.632;23.298;2022-11-13T05:22:49;93734.69;;;8.05;100.00
13033;BME280;6583;42.632;23.298;2022-11-13T05:25:15;93727.88;;;8.09;100.00
13033;BME280;6583;42.632;23.298;2022-11-13T05:27:42;93730.03;;;8.13;100.00
13033;BME280;6583;42.632;23.298;2022-11-13T05:30:11;93734.84;;;8.16;100.00
13033;BME280;6583;42.632;23.298;2022-11-13T05:32:37;93731.03;;;8.28;100.00
13033;BME280;6583;42.632;23.298;2022-11-13T05:35:04;93730.25;;;8.28;100.00
13033;BME280;6583;42.632;23.298;2022-11-13T05:37:31;93738.78;;;8.35;100.00
13033;BME280;6583;42.632;23.298;2022-11-13T05:39:57;93733.56;;;8.40;100.00
13033;BME280;6583;42.632;23.298;2022-11-13T05:42:24;93743.69;;;8.43;100.00
13033;BME280;6583;42.632;23.298;2022-11-13T05:44:51;93745.31;;;8.44;100.00
13033;BME280;6583;42.632;23.298;2022-11-13T05:47:19;93748.50;;;8.46;100.00
13033;BME280;6583;42.632;23.298;2022-11-13T05:49:45;93752.88;;;8.41;100.00
13033;BME280;6583;42.632;23.298;2022-11-13T05:52:12;93751.78;;;8.37;100.00
13033;BME280;6583;42.632;23.298;2022-11-13T05:54:39;93753.78;;;8.46;100.00
13033;BME280;6583;42.632;23.298;2022-11-13T05:57:05;93748.88;;;8.38;100.00
13033;BME280;6583;42.632;23.298;2022-11-13T05:59:32;93753.06;;;8.34;100.00
13033;BME280;6583;42.632;23.298;2022-11-13T06:01:58;93756.91;;;8.43;100.00
13033;BME280;6583;42.632;23.298;2022-11-13T06:04:26;93760.59;;;8.42;100.00
13033;BME280;6583;42.632;23.298;2022-11-13T06:06:53;93767.41;;;8.38;100.00
13033;BME280;6583;42.632;23.298;2022-11-13T06:09:20;93764.75;;;8.38;100.00
13033;BME280;6583;42.632;23.298;2022-11-13T06:11:46;93769.66;;;8.46;100.00
13033;BME280;6583;42.632;23.298;2022-11-13T06:14:13;93764.50;;;8.40;100.00
13033;BME280;6583;42.632;23.298;2022-11-13T06:16:40;93771.81;;;8.33;100.00
13033;BME280;6583;42.632;23.298;2022-11-13T06:19:08;93768.19;;;8.17;100.00
13033;BME280;6583;42.632;23.298;2022-11-13T06:21:38;93764.88;;;8.09;100.00
13033;BME280;6583;42.632;23.298;2022-11-13T06:24:06;93762.81;;;8.12;100.00
13033;BME280;6583;42.632;23.298;2022-11-13T06:26:34;93751.66;;;8.09;100.00
13033;BME280;6583;42.632;23.298;2022-11-13T06:29:03;93748.88;;;7.99;100.00
13033;BME280;6583;42.632;23.298;2022-11-13T06:31:32;93752.50;;;7.93;100.00
13033;BME280;6583;42.632;23.298;2022-11-13T06:33:59;93764.84;;;7.87;100.00
13033;BME280;6583;42.632;23.298;2022-11-13T06:36:28;93763.38;;;7.97;100.00
13033;BME280;6583;42.632;23.298;2022-11-13T06:38:57;93765.47;;;8.12;100.00
13033;BME280;6583;42.632;23.298;2022-11-13T06:41:25;93761.28;;;8.16;100.00
13033;BME280;6583;42.632;23.298;2022-11-13T06:43:53;93754.22;;;8.21;100.00
13033;BME280;6583;42.632;23.298;2022-11-13T06:46:22;93762.47;;;8.25;100.00
13033;BME280;6583;42.632;23.298;2022-11-13T06:48:49;93761.00;;;8.34;100.00
13033;BME280;6583;42.632;23.298;2022-11-13T06:51:17;93759.47;;;8.38;100.00
13033;BME280;6583;42.632;23.298;2022-11-13T06:53:44;93758.16;;;8.41;100.00
13033;BME280;6583;42.632;23.298;2022-11-13T06:56:13;93755.63;;;8.46;100.00
13033;BME280;6583;42.632;23.298;2022-11-13T06:58:40;93754.34;;;8.49;100.00
13033;BME280;6583;42.632;23.298;2022-11-13T07:01:09;93757.19;;;8.64;100.00
13033;BME280;6583;42.632;23.298;2022-11-13T07:03:36;93756.75;;;8.72;100.00
13033;BME280;6583;42.632;23.298;2022-11-13T07:06:05;93754.41;;;8.76;100.00
13033;BME280;6583;42.632;23.298;2022-11-13T07:08:32;93756.47;;;8.74;100.00
13033;BME280;6583;42.632;23.298;2022-11-13T07:10:59;93762.84;;;8.73;100.00
13033;BME280;6583;42.632;23.298;2022-11-13T07:13:28;93761.41;;;8.65;100.00
13033;BME280;6583;42.632;23.298;2022-11-13T07:16:00;93771.81;;;8.72;100.00
13033;BME280;6583;42.632;23.298;2022-11-13T07:18:29;93770.84;;;8.78;100.00
13033;BME280;6583;42.632;23.298;2022-11-13T07:20:56;93762.16;;;8.82;100.00
13033;BME280;6583;42.632;23.298;2022-11-13T07:23:22;93775.69;;;8.86;100.00
13033;BME280;6583;42.632;23.298;2022-11-13T07:25:52;93779.19;;;8.92;100.00
13033;BME280;6583;42.632;23.298;2022-11-13T07:28:19;93782.41;;;8.94;100.00
13033;BME280;6583;42.632;23.298;2022-11-13T07:30:47;93784.13;;;9.05;100.00
13033;BME280;6583;42.632;23.298;2022-11-13T07:33:14;93772.53;;;9.11;100.00
13033;BME280;6583;42.632;23.298;2022-11-13T07:35:40;93773.63;;;9.15;100.00
13033;BME280;6583;42.632;23.298;2022-11-13T07:38:07;93779.28;;;9.24;100.00
13033;BME280;6583;42.632;23.298;2022-11-13T07:40:34;93779.53;;;9.22;100.00
13033;BME280;6583;42.632;23.298;2022-11-13T07:43:02;93783.81;;;9.29;100.00
13033;BME280;6583;42.632;23.298;2022-11-13T07:45:29;93779.00;;;9.26;100.00
13033;BME280;6583;42.632;23.298;2022-11-13T07:48:01;93775.81;;;9.23;100.00
13033;BME280;6583;42.632;23.298;2022-11-13T07:50:30;93784.94;;;9.33;100.00
13033;BME280;6583;42.632;23.298;2022-11-13T07:52:57;93784.75;;;9.45;100.00
13033;BME280;6583;42.632;23.298;2022-11-13T07:55:25;93784.59;;;9.56;100.00
13033;BME280;6583;42.632;23.298;2022-11-13T07:57:55;93779.94;;;9.69;100.00
13033;BME280;6583;42.632;23.298;2022-11-13T08:00:23;93781.41;;;9.54;100.00
13033;BME280;6583;42.632;23.298;2022-11-13T08:02:49;93787.13;;;9.41;100.00
13033;BME280;6583;42.632;23.298;2022-11-13T08:05:18;93787.94;;;9.41;100.00
13033;BME280;6583;42.632;23.298;2022-11-13T08:07:46;93778.31;;;9.35;100.00
13033;BME280;6583;42.632;23.298;2022-11-13T08:10:14;93777.78;;;9.33;100.00
13033;BME280;6583;42.632;23.298;2022-11-13T08:12:40;93781.41;;;9.27;100.00
13033;BME280;6583;42.632;23.298;2022-11-13T08:15:08;93779.59;;;9.28;100.00
13033;BME280;6583;42.632;23.298;2022-11-13T08:17:35;93782.28;;;9.33;100.00
13033;BME280;6583;42.632;23.298;2022-11-13T08:20:02;93784.72;;;9.39;100.00
13033;BME280;6583;42.632;23.298;2022-11-13T08:22:30;93780.81;;;9.47;100.00
13033;BME280;6583;42.632;23.298;2022-11-13T08:24:57;93778.19;;;9.47;100.00
13033;BME280;6583;42.632;23.298;2022-11-13T08:27:24;93779.50;;;9.50;99.62
13033;BME280;6583;42.632;23.298;2022-11-13T08:29:51;93780.88;;;9.52;99.18
13033;BME280;6583;42.632;23.298;2022-11-13T08:32:18;93772.44;;;9.55;98.42
13033;BME280;6583;42.632;23.298;2022-11-13T08:34:46;93783.63;;;9.63;98.94
13033;BME280;6583;42.632;23.298;2022-11-13T08:37:13;93780.22;;;9.67;98.15
13033;BME280;6583;42.632;23.298;2022-11-13T08:39:41;93788.47;;;9.71;96.22
13033;BME280;6583;42.632;23.298;2022-11-13T08:42:08;93787.94;;;9.74;97.15
13033;BME280;6583;42.632;23.298;2022-11-13T08:44:35;93787.56;;;9.60;97.54
13033;BME280;6583;42.632;23.298;2022-11-13T08:47:01;93800.91;;;9.70;96.95
13033;BME280;6583;42.632;23.298;2022-11-13T08:49:28;93793.84;;;9.81;97.72
13033;BME280;6583;42.632;23.298;2022-11-13T08:51:55;93800.28;;;9.90;97.29
13033;BME280;6583;42.632;23.298;2022-11-13T08:54:21;93805.03;;;9.88;95.35
13033;BME280;6583;42.632;23.298;2022-11-13T08:56:50;93806.53;;;9.79;95.55
13033;BME280;6583;42.632;23.298;2022-11-13T08:59:16;93807.91;;;9.82;95.13
13033;BME280;6583;42.632;23.298;2022-11-13T09:01:43;93804.13;;;9.77;95.61
13033;BME280;6583;42.632;23.298;2022-11-13T09:04:10;93811.28;;;9.77;96.19
13033;BME280;6583;42.632;23.298;2022-11-13T09:06:36;93808.91;;;9.75;96.44
13033;BME280;6583;42.632;23.298;2022-11-13T09:09:04;93804.91;;;9.73;96.35
13033;BME280;6583;42.632;23.298;2022-11-13T09:11:31;93803.75;;;9.64;96.65
13033;BME280;6583;42.632;23.298;2022-11-13T09:14:00;93803.25;;;9.67;96.64
13033;BME280;6583;42.632;23.298;2022-11-13T09:16:26;93801.91;;;9.64;96.88
13033;BME280;6583;42.632;23.298;2022-11-13T09:18:53;93809.09;;;9.69;97.53
13033;BME280;6583;42.632;23.298;2022-11-13T09:21:19;93804.31;;;9.66;97.43
13033;BME280;6583;42.632;23.298;2022-11-13T09:23:46;93804.13;;;9.77;98.15
13033;BME280;6583;42.632;23.298;2022-11-13T09:26:13;93806.75;;;9.72;96.66
13033;BME280;6583;42.632;23.298;2022-11-13T09:28:39;93798.50;;;9.69;97.29
13033;BME280;6583;42.632;23.298;2022-11-13T09:31:07;93802.22;;;9.68;97.17
13033;BME280;6583;42.632;23.298;2022-11-13T09:33:34;93791.41;;;9.74;97.55
13033;BME280;6583;42.632;23.298;2022-11-13T09:36:01;93790.13;;;9.82;97.31
13033;BME280;6583;42.632;23.298;2022-11-13T09:38:28;93785.94;;;9.91;96.88
13033;BME280;6583;42.632;23.298;2022-11-13T09:40:58;93782.84;;;10.00;96.12
13033;BME280;6583;42.632;23.298;2022-11-13T09:43:30;93780.22;;;10.05;94.65
13033;BME280;6583;42.632;23.298;2022-11-13T09:46:02;93777.47;;;9.89;96.18
13033;BME280;6583;42.632;23.298;2022-11-13T09:48:34;93780.22;;;10.05;96.47
13033;BME280;6583;42.632;23.298;2022-11-13T09:51:05;93777.06;;;10.08;95.46
13033;BME280;6583;42.632;23.298;2022-11-13T09:53:36;93771.50;;;10.09;95.35
13033;BME280;6583;42.632;23.298;2022-11-13T09:56:15;93766.53;;;10.18;95.62
13033;BME280;6583;42.632;23.298;2022-11-13T09:58:48;93774.53;;;10.23;94.35
13033;BME280;6583;42.632;23.298;2022-11-13T10:01:22;93772.94;;;10.27;94.41
13033;BME280;6583;42.632;23.298;2022-11-13T10:03:57;93771.88;;;10.23;94.52
13033;BME280;6583;42.632;23.298;2022-11-13T10:06:34;93768.13;;;10.19;93.49
13033;BME280;6583;42.632;23.298;2022-11-13T10:09:18;93771.28;;;10.16;95.06
13033;BME280;6583;42.632;23.298;2022-11-13T10:11:50;93762.78;;;10.14;94.59
13033;BME280;6583;42.632;23.298;2022-11-13T10:14:22;93771.78;;;10.13;94.75
13033;BME280;6583;42.632;23.298;2022-11-13T10:16:52;93772.84;;;10.12;95.62
13033;BME280;6583;42.632;23.298;2022-11-13T10:19:25;93767.00;;;10.10;95.75
13033;BME280;6583;42.632;23.298;2022-11-13T10:21:57;93769.41;;;10.11;96.27
13033;BME280;6583;42.632;23.298;2022-11-13T10:24:28;93764.38;;;10.15;95.36
13033;BME280;6583;42.632;23.298;2022-11-13T10:26:59;93760.72;;;10.21;95.72
13033;BME280;6583;42.632;23.298;2022-11-13T10:29:27;93755.16;;;10.23;94.80
13033;BME280;6583;42.632;23.298;2022-11-13T10:31:56;93753.03;;;10.25;94.08
13033;BME280;6583;42.632;23.298;2022-11-13T10:34:24;93758.63;;;10.28;95.01
13033;BME280;6583;42.632;23.298;2022-11-13T10:36:59;93758.16;;;10.31;95.12
13033;BME280;6583;42.632;23.298;2022-11-13T10:39:40;93755.53;;;10.37;94.81
13033;BME280;6583;42.632;23.298;2022-11-13T10:42:19;93747.56;;;10.37;94.61
13033;BME280;6583;42.632;23.298;2022-11-13T10:44:52;93757.13;;;10.38;93.58
13033;BME280;6583;42.632;23.298;2022-11-13T10:47:22;93751.03;;;10.37;94.27
13033;BME280;6583;42.632;23.298;2022-11-13T10:49:50;93750.22;;;10.37;94.33
13033;BME280;6583;42.632;23.298;2022-11-13T10:52:18;93749.66;;;10.34;94.23
13033;BME280;6583;42.632;23.298;2022-11-13T10:54:46;93739.03;;;10.34;94.07
13033;BME280;6583;42.632;23.298;2022-11-13T10:57:22;93743.81;;;10.32;94.33
13033;BME280;6583;42.632;23.298;2022-11-13T10:59:50;93742.47;;;10.30;94.27
13033;BME280;6583;42.632;23.298;2022-11-13T11:02:18;93746.91;;;10.24;94.05
13033;BME280;6583;42.632;23.298;2022-11-13T11:04:45;93748.34;;;10.32;94.77
13033;BME280;6583;42.632;23.298;2022-11-13T11:07:16;93743.56;;;10.34;94.57
13033;BME280;6583;42.632;23.298;2022-11-13T11:09:43;93741.69;;;10.34;93.27
13033;BME280;6583;42.632;23.298;2022-11-13T11:12:13;93738.00;;;10.35;92.87
13033;BME280;6583;42.632;23.298;2022-11-13T11:15:02;93740.41;;;10.37;92.94
13033;BME280;6583;42.632;23.298;2022-11-13T11:17:35;93739.91;;;10.40;93.17
13033;BME280;6583;42.632;23.298;2022-11-13T11:20:08;93735.38;;;10.41;92.75
13033;BME280;6583;42.632;23.298;2022-11-13T11:22:40;93732.25;;;10.49;92.58
13033;BME280;6583;42.632;23.298;2022-11-13T11:25:11;93734.88;;;10.49;91.45
13033;BME280;6583;42.632;23.298;2022-11-13T11:27:42;93732.75;;;10.46;92.25
13033;BME280;6583;42.632;23.298;2022-11-13T11:30:16;93733.53;;;10.46;91.96
13033;BME280;6583;42.632;23.298;2022-11-13T11:32:47;93734.63;;;10.45;91.10
13033;BME280;6583;42.632;23.298;2022-11-13T11:35:18;93731.13;;;10.45;91.66
13033;BME280;6583;42.632;23.298;2022-11-13T11:37:53;93727.69;;;10.44;91.23
13033;BME280;6583;42.632;23.298;2022-11-13T11:40:26;93724.22;;;10.39;91.38
13033;BME280;6583;42.632;23.298;2022-11-13T11:43:00;93725.28;;;10.43;91.06
13033;BME280;6583;42.632;23.298;2022-11-13T11:45:36;93723.72;;;10.42;90.56
13033;BME280;6583;42.632;23.298;2022-11-13T11:48:10;93721.06;;;10.42;90.84
13033;BME280;6583;42.632;23.298;2022-11-13T11:50:42;93725.28;;;10.43;90.98
13033;BME280;6583;42.632;23.298;2022-11-13T11:53:15;93714.69;;;10.43;90.63
13033;BME280;6583;42.632;23.298;2022-11-13T11:55:59;93717.38;;;10.48;91.38
13033;BME280;6583;42.632;23.298;2022-11-13T11:58:45;93708.63;;;10.52;91.55
13033;BME280;6583;42.632;23.298;2022-11-13T12:01:25;93711.56;;;10.56;91.63
13033;BME280;6583;42.632;23.298;2022-11-13T12:04:06;93711.59;;;10.61;91.21
13033;BME280;6583;42.632;23.298;2022-11-13T12:06:48;93712.38;;;10.62;91.50
13033;BME280;6583;42.632;23.298;2022-11-13T12:09:24;93708.69;;;10.68;91.31
13033;BME280;6583;42.632;23.298;2022-11-13T12:12:00;93708.69;;;10.68;91.00
13033;BME280;6583;42.632;23.298;2022-11-13T12:14:39;93714.03;;;10.73;90.97
13033;BME280;6583;42.632;23.298;2022-11-13T12:17:20;93714.28;;;10.71;91.15
13033;BME280;6583;42.632;23.298;2022-11-13T12:19:59;93708.47;;;10.75;90.88
13033;BME280;6583;42.632;23.298;2022-11-13T12:22:34;93708.16;;;10.71;90.68
13033;BME280;6583;42.632;23.298;2022-11-13T12:25:15;93711.34;;;10.68;90.29
13033;BME280;6583;42.632;23.298;2022-11-13T12:27:51;93700.19;;;10.66;90.77
13033;BME280;6583;42.632;23.298;2022-11-13T12:30:29;93704.72;;;10.70;91.88
13033;BME280;6583;42.632;23.298;2022-11-13T12:33:05;93705.78;;;10.75;90.62
13033;BME280;6583;42.632;23.298;2022-11-13T12:35:36;93700.47;;;10.69;90.40
13033;BME280;6583;42.632;23.298;2022-11-13T12:38:12;93705.78;;;10.69;89.91
13033;BME280;6583;42.632;23.298;2022-11-13T12:40:49;93697.53;;;10.71;90.03
13033;BME280;6583;42.632;23.298;2022-11-13T12:43:31;93698.88;;;10.68;89.70
13033;BME280;6583;42.632;23.298;2022-11-13T12:46:04;93700.72;;;10.68;90.11
13033;BME280;6583;42.632;23.298;2022-11-13T12:48:33;93691.44;;;10.70;90.35
13033;BME280;6583;42.632;23.298;2022-11-13T12:51:03;93697.00;;;10.74;90.16
13033;BME280;6583;42.632;23.298;2022-11-13T12:53:42;93693.06;;;10.77;90.32
13033;BME280;6583;42.632;23.298;2022-11-13T12:56:15;93695.97;;;10.80;90.04
13033;BME280;6583;42.632;23.298;2022-11-13T12:58:52;93694.38;;;10.79;89.81
13033;BME280;6583;42.632;23.298;2022-11-13T13:01:20;93697.03;;;10.84;89.75
13033;BME280;6583;42.632;23.298;2022-11-13T13:07:09;93688.31;;;10.89;89.64
13033;BME280;6583;42.632;23.298;2022-11-13T13:09:50;93694.69;;;10.93;89.27
13033;BME280;6583;42.632;23.298;2022-11-13T13:12:31;93693.88;;;10.93;88.57
13033;BME280;6583;42.632;23.298;2022-11-13T13:15:21;93696.03;;;11.01;89.44
13033;BME280;6583;42.632;23.298;2022-11-13T13:18:01;93697.88;;;11.05;89.27